METAR AND TAF INFORMATION
METAR FOR LFSD
ADDS - METARS form results

(0215 UTC 23 January 2019)
Data provider http://aviationweather.gov/metar/data/
 
METAR text: LFSD 230200Z AUTO 18004KT 140V200 4700 BR OVC012 M00/M01 Q0998
Conditions at: LFSD (DIJON/LONGVIC(FA, FR) observed 0200 UTC 23 January 2019
Temperature: 0.0°C (32°F)
Dewpoint: -1.0°C (30°F) [RH = 93%]
Pressure (altimeter): 29.47 inches Hg (998.0 mb)
Winds: from the S (180 degrees) at 5 MPH (4 knots; 2.1 m/s)
Visibility: 2.92 miles (4.70 km)
Ceiling: 1200 feet AGL
Clouds: overcast cloud deck at 1200 feet AGL
Weather: BR  (mist)

METAR text: LFSD 230130Z AUTO 19005KT 4400 BR OVC012 M00/M01 Q0999
Conditions at: LFSD (DIJON/LONGVIC(FA, FR) observed 0130 UTC 23 January 2019
Temperature: 0.0°C (32°F)
Dewpoint: -1.0°C (30°F) [RH = 93%]
Pressure (altimeter): 29.50 inches Hg (999.0 mb)
Winds: from the S (190 degrees) at 6 MPH (5 knots; 2.6 m/s)
Visibility: 2.73 miles (4.39 km)
Ceiling: 1200 feet AGL
Clouds: overcast cloud deck at 1200 feet AGL
Weather: BR  (mist)

 AIRPORT MAP

 RUNWAY INFORMATION
Runway 02 Runway length 5905 ft Runway width 118 ft
Runway elevation 719 ft Runway displaced threshold 0 ft Runway heading 15
Runway 20 Runway length 5905 ft Runway width 118 ft
Runway elevation 728 ft Runway displaced threshold 0 ft Runway heading 195
Runway 18 Runway length 7874 ft Runway width 148 ft
Runway elevation 726 ft Runway displaced threshold 0 ft Runway heading 175
Runway 36 Runway length 7874 ft Runway width 148 ft
Runway elevation 710 ft Runway displaced threshold 0 ft Runway heading 355

 AIRPORT FREQUENCIES
Type A/D Name DIJON APP Frequency 142.45 MHZ
Type AFIS Name DIJON INFO Frequency 118.325 MHZ
Type GND Name DIJON GND Frequency 122.1 MHZ
Type TWR Name DIJON TWR Frequency 118.325 MHZ

 AIRPORT NEAR NAVIGATION AIDS
Type TACAN Name Dijon Frequency 113500 KHZ
Type VOR-DME Name Dijon Frequency 111450 KHZ



Powered by Virtual Airlines Manager [v2.6.2]